Annapolis, Indiana
Current Conditions -  °F | °C
As of 7:15 PM on Tuesday 25 Nov 2014 (Local Time) from KPRG Reporting Station
Overcast Overcast  
Wind Chill: -2°   Ceiling: 1700
Heat Index: -2°   Visibility: 10mi
Dew Point: -4°   Wind: 0mph
Humidity: 85%   Direction: NA
Pressure: 30.22"   Gusts: NA
Location:  39.8468°N, 87.2662°W
Report Text: KPRG 260015Z AUTO 00000KT 10SM OVC017 M02/M04 A3022 RMK AO2 T10201042
Loading
Personal Weather Stations






























Interactive Weather Map New forecast layout! Learn more

10-Day Weather Forecast

Advertisements
Track Severe Weather on mobile